sensor_id;sensor_type;location;lat;lon;timestamp;temperature;humidity
40516;DHT22;26216;53.724;9.898;2023-05-07T00:00:39;12.00;98.50
40516;DHT22;26216;53.724;9.898;2023-05-07T00:03:05;12.00;98.50
40516;DHT22;26216;53.724;9.898;2023-05-07T00:05:32;12.00;98.50
40516;DHT22;26216;53.724;9.898;2023-05-07T00:07:58;12.00;98.50
40516;DHT22;26216;53.724;9.898;2023-05-07T00:10:24;12.00;98.50
40516;DHT22;26216;53.724;9.898;2023-05-07T00:12:51;12.00;98.70
40516;DHT22;26216;53.724;9.898;2023-05-07T00:15:16;11.90;98.40
40516;DHT22;26216;53.724;9.898;2023-05-07T00:17:42;11.90;98.50
40516;DHT22;26216;53.724;9.898;2023-05-07T00:20:08;11.90;98.50
40516;DHT22;26216;53.724;9.898;2023-05-07T00:22:34;11.90;98.50
40516;DHT22;26216;53.724;9.898;2023-05-07T00:25:00;11.90;98.50
40516;DHT22;26216;53.724;9.898;2023-05-07T00:27:26;11.90;98.50
40516;DHT22;26216;53.724;9.898;2023-05-07T00:29:52;11.90;98.50
40516;DHT22;26216;53.724;9.898;2023-05-07T00:32:18;11.90;98.50
40516;DHT22;26216;53.724;9.898;2023-05-07T00:34:44;11.90;98.50
40516;DHT22;26216;53.724;9.898;2023-05-07T00:37:10;11.90;98.50
40516;DHT22;26216;53.724;9.898;2023-05-07T00:39:37;11.90;98.50
40516;DHT22;26216;53.724;9.898;2023-05-07T00:42:03;11.90;98.40
40516;DHT22;26216;53.724;9.898;2023-05-07T00:44:29;11.90;98.50
40516;DHT22;26216;53.724;9.898;2023-05-07T00:46:59;11.90;98.40
40516;DHT22;26216;53.724;9.898;2023-05-07T00:49:38;11.90;98.50
40516;DHT22;26216;53.724;9.898;2023-05-07T00:52:06;11.90;98.50
40516;DHT22;26216;53.724;9.898;2023-05-07T00:54:33;11.80;98.40
40516;DHT22;26216;53.724;9.898;2023-05-07T00:56:59;11.90;98.40
40516;DHT22;26216;53.724;9.898;2023-05-07T00:59:27;11.80;98.40
40516;DHT22;26216;53.724;9.898;2023-05-07T01:01:53;11.90;98.40
40516;DHT22;26216;53.724;9.898;2023-05-07T01:04:19;11.90;98.50
40516;DHT22;26216;53.724;9.898;2023-05-07T01:06:45;11.80;98.40
40516;DHT22;26216;53.724;9.898;2023-05-07T01:09:12;11.80;98.40
40516;DHT22;26216;53.724;9.898;2023-05-07T01:11:39;11.90;98.40
40516;DHT22;26216;53.724;9.898;2023-05-07T01:14:05;11.80;98.40
40516;DHT22;26216;53.724;9.898;2023-05-07T01:16:32;11.90;98.40
40516;DHT22;26216;53.724;9.898;2023-05-07T01:18:58;11.90;98.40
40516;DHT22;26216;53.724;9.898;2023-05-07T01:21:26;11.90;98.40
40516;DHT22;26216;53.724;9.898;2023-05-07T01:23:54;11.80;98.30
40516;DHT22;26216;53.724;9.898;2023-05-07T01:26:21;11.90;98.30
40516;DHT22;26216;53.724;9.898;2023-05-07T01:28:47;11.90;98.40
40516;DHT22;26216;53.724;9.898;2023-05-07T01:31:14;11.90;98.30
40516;DHT22;26216;53.724;9.898;2023-05-07T01:33:42;11.90;98.40
40516;DHT22;26216;53.724;9.898;2023-05-07T01:36:09;11.90;98.30
40516;DHT22;26216;53.724;9.898;2023-05-07T01:38:37;11.90;98.30
40516;DHT22;26216;53.724;9.898;2023-05-07T01:41:03;11.80;98.30
40516;DHT22;26216;53.724;9.898;2023-05-07T01:43:30;11.80;98.30
40516;DHT22;26216;53.724;9.898;2023-05-07T01:45:57;11.80;98.20
40516;DHT22;26216;53.724;9.898;2023-05-07T01:48:24;11.80;98.20
40516;DHT22;26216;53.724;9.898;2023-05-07T01:50:51;11.80;98.20
40516;DHT22;26216;53.724;9.898;2023-05-07T01:53:18;11.80;98.20
40516;DHT22;26216;53.724;9.898;2023-05-07T01:55:43;11.80;98.20
40516;DHT22;26216;53.724;9.898;2023-05-07T01:58:09;11.70;98.20
40516;DHT22;26216;53.724;9.898;2023-05-07T02:00:36;11.70;98.20
40516;DHT22;26216;53.724;9.898;2023-05-07T02:03:02;11.80;98.30
40516;DHT22;26216;53.724;9.898;2023-05-07T02:05:27;11.80;98.30
40516;DHT22;26216;53.724;9.898;2023-05-07T02:07:53;11.80;98.30
40516;DHT22;26216;53.724;9.898;2023-05-07T02:10:19;11.70;98.20
40516;DHT22;26216;53.724;9.898;2023-05-07T02:12:45;11.70;98.30
40516;DHT22;26216;53.724;9.898;2023-05-07T02:15:11;11.70;98.20
40516;DHT22;26216;53.724;9.898;2023-05-07T02:17:58;11.70;98.30
40516;DHT22;26216;53.724;9.898;2023-05-07T02:20:25;11.70;98.30
40516;DHT22;26216;53.724;9.898;2023-05-07T02:22:51;11.70;98.30
40516;DHT22;26216;53.724;9.898;2023-05-07T02:25:16;11.70;98.20
40516;DHT22;26216;53.724;9.898;2023-05-07T02:27:42;11.60;98.20
40516;DHT22;26216;53.724;9.898;2023-05-07T02:30:08;11.70;98.20
40516;DHT22;26216;53.724;9.898;2023-05-07T02:32:34;11.70;98.20
40516;DHT22;26216;53.724;9.898;2023-05-07T02:35:00;11.70;98.20
40516;DHT22;26216;53.724;9.898;2023-05-07T02:37:26;11.70;98.20
40516;DHT22;26216;53.724;9.898;2023-05-07T02:39:52;11.70;98.30
40516;DHT22;26216;53.724;9.898;2023-05-07T02:42:17;11.70;98.30
40516;DHT22;26216;53.724;9.898;2023-05-07T02:44:43;11.70;98.30
40516;DHT22;26216;53.724;9.898;2023-05-07T02:47:09;11.70;98.30
40516;DHT22;26216;53.724;9.898;2023-05-07T02:49:35;11.70;98.30
40516;DHT22;26216;53.724;9.898;2023-05-07T02:52:01;11.70;98.30
40516;DHT22;26216;53.724;9.898;2023-05-07T02:54:27;11.70;98.30
40516;DHT22;26216;53.724;9.898;2023-05-07T02:56:53;11.70;98.30
40516;DHT22;26216;53.724;9.898;2023-05-07T02:59:19;11.70;98.30
40516;DHT22;26216;53.724;9.898;2023-05-07T03:01:45;11.60;98.30
40516;DHT22;26216;53.724;9.898;2023-05-07T03:04:10;11.70;98.40
40516;DHT22;26216;53.724;9.898;2023-05-07T03:06:36;11.70;98.40
40516;DHT22;26216;53.724;9.898;2023-05-07T03:09:02;11.70;98.40
40516;DHT22;26216;53.724;9.898;2023-05-07T03:11:28;11.70;98.40
40516;DHT22;26216;53.724;9.898;2023-05-07T03:13:54;11.70;98.40
40516;DHT22;26216;53.724;9.898;2023-05-07T03:16:20;11.70;98.40
40516;DHT22;26216;53.724;9.898;2023-05-07T03:18:46;11.70;98.40
40516;DHT22;26216;53.724;9.898;2023-05-07T03:21:12;11.70;98.30
40516;DHT22;26216;53.724;9.898;2023-05-07T03:23:38;11.70;98.30
40516;DHT22;26216;53.724;9.898;2023-05-07T03:26:04;11.70;98.20
40516;DHT22;26216;53.724;9.898;2023-05-07T03:28:30;11.60;98.20
40516;DHT22;26216;53.724;9.898;2023-05-07T03:30:56;11.70;98.20
40516;DHT22;26216;53.724;9.898;2023-05-07T03:33:21;11.70;98.20
40516;DHT22;26216;53.724;9.898;2023-05-07T03:35:47;11.60;98.20
40516;DHT22;26216;53.724;9.898;2023-05-07T03:38:13;11.60;98.20
40516;DHT22;26216;53.724;9.898;2023-05-07T03:40:39;11.70;98.20
40516;DHT22;26216;53.724;9.898;2023-05-07T03:43:05;11.70;98.20
40516;DHT22;26216;53.724;9.898;2023-05-07T03:45:31;11.60;98.20
40516;DHT22;26216;53.724;9.898;2023-05-07T03:47:57;11.60;98.10
40516;DHT22;26216;53.724;9.898;2023-05-07T03:50:23;11.70;98.10
40516;DHT22;26216;53.724;9.898;2023-05-07T03:52:48;11.60;98.10
40516;DHT22;26216;53.724;9.898;2023-05-07T03:55:14;11.60;98.10
40516;DHT22;26216;53.724;9.898;2023-05-07T03:57:40;11.60;98.10
40516;DHT22;26216;53.724;9.898;2023-05-07T04:00:06;11.60;98.10
40516;DHT22;26216;53.724;9.898;2023-05-07T04:02:33;11.60;98.10
40516;DHT22;26216;53.724;9.898;2023-05-07T04:04:59;11.60;98.10
40516;DHT22;26216;53.724;9.898;2023-05-07T04:07:24;11.60;98.10
40516;DHT22;26216;53.724;9.898;2023-05-07T04:09:50;11.60;98.10
40516;DHT22;26216;53.724;9.898;2023-05-07T04:12:16;11.60;98.10
40516;DHT22;26216;53.724;9.898;2023-05-07T04:14:42;11.60;98.10
40516;DHT22;26216;53.724;9.898;2023-05-07T04:17:08;11.60;98.10
40516;DHT22;26216;53.724;9.898;2023-05-07T04:19:35;11.60;98.10
40516;DHT22;26216;53.724;9.898;2023-05-07T04:22:01;11.60;98.10
40516;DHT22;26216;53.724;9.898;2023-05-07T04:24:27;11.60;98.00
40516;DHT22;26216;53.724;9.898;2023-05-07T04:26:53;11.70;98.00
40516;DHT22;26216;53.724;9.898;2023-05-07T04:29:18;11.60;98.00
40516;DHT22;26216;53.724;9.898;2023-05-07T04:31:44;11.60;98.00
40516;DHT22;26216;53.724;9.898;2023-05-07T04:34:11;11.70;98.00
40516;DHT22;26216;53.724;9.898;2023-05-07T04:36:38;11.70;98.00
40516;DHT22;26216;53.724;9.898;2023-05-07T04:39:04;11.60;97.90
40516;DHT22;26216;53.724;9.898;2023-05-07T04:41:30;11.60;97.90
40516;DHT22;26216;53.724;9.898;2023-05-07T04:43:56;11.70;97.90
40516;DHT22;26216;53.724;9.898;2023-05-07T04:46:24;11.60;97.90
40516;DHT22;26216;53.724;9.898;2023-05-07T04:48:50;11.70;97.90
40516;DHT22;26216;53.724;9.898;2023-05-07T04:51:16;11.70;98.00
40516;DHT22;26216;53.724;9.898;2023-05-07T04:53:42;11.70;98.00
40516;DHT22;26216;53.724;9.898;2023-05-07T04:56:08;11.70;98.00
40516;DHT22;26216;53.724;9.898;2023-05-07T04:58:34;11.70;97.90
40516;DHT22;26216;53.724;9.898;2023-05-07T05:01:00;11.70;97.80
40516;DHT22;26216;53.724;9.898;2023-05-07T05:03:27;11.60;97.80
40516;DHT22;26216;53.724;9.898;2023-05-07T05:05:52;11.60;97.80
40516;DHT22;26216;53.724;9.898;2023-05-07T05:08:18;11.60;97.90
40516;DHT22;26216;53.724;9.898;2023-05-07T05:10:44;11.70;97.90
40516;DHT22;26216;53.724;9.898;2023-05-07T05:13:10;11.60;97.90
40516;DHT22;26216;53.724;9.898;2023-05-07T05:15:38;11.70;97.90
40516;DHT22;26216;53.724;9.898;2023-05-07T05:18:04;11.70;97.90
40516;DHT22;26216;53.724;9.898;2023-05-07T05:20:30;11.70;97.90
40516;DHT22;26216;53.724;9.898;2023-05-07T05:22:56;11.80;98.00
40516;DHT22;26216;53.724;9.898;2023-05-07T05:25:22;11.80;98.00
40516;DHT22;26216;53.724;9.898;2023-05-07T05:27:48;11.80;98.00
40516;DHT22;26216;53.724;9.898;2023-05-07T05:30:14;11.80;98.00
40516;DHT22;26216;53.724;9.898;2023-05-07T05:32:39;11.80;98.00
40516;DHT22;26216;53.724;9.898;2023-05-07T05:35:06;11.90;97.80
40516;DHT22;26216;53.724;9.898;2023-05-07T05:37:32;11.90;97.90
40516;DHT22;26216;53.724;9.898;2023-05-07T05:39:57;11.90;97.80
40516;DHT22;26216;53.724;9.898;2023-05-07T05:42:23;12.00;98.20
40516;DHT22;26216;53.724;9.898;2023-05-07T05:44:49;12.00;97.90
40516;DHT22;26216;53.724;9.898;2023-05-07T05:47:15;12.00;97.80
40516;DHT22;26216;53.724;9.898;2023-05-07T05:49:41;12.00;97.70
40516;DHT22;26216;53.724;9.898;2023-05-07T05:52:09;12.10;97.70
40516;DHT22;26216;53.724;9.898;2023-05-07T05:54:35;12.10;97.50
40516;DHT22;26216;53.724;9.898;2023-05-07T05:57:01;12.10;97.50
40516;DHT22;26216;53.724;9.898;2023-05-07T05:59:29;12.10;97.40
40516;DHT22;26216;53.724;9.898;2023-05-07T06:01:56;12.20;97.50
40516;DHT22;26216;53.724;9.898;2023-05-07T06:04:21;12.20;97.40
40516;DHT22;26216;53.724;9.898;2023-05-07T06:06:47;12.20;97.30
40516;DHT22;26216;53.724;9.898;2023-05-07T06:09:13;12.20;97.30
40516;DHT22;26216;53.724;9.898;2023-05-07T06:11:39;12.30;97.40
40516;DHT22;26216;53.724;9.898;2023-05-07T06:14:06;12.30;97.20
40516;DHT22;26216;53.724;9.898;2023-05-07T06:16:32;12.30;97.20
40516;DHT22;26216;53.724;9.898;2023-05-07T06:18:58;12.30;97.20
40516;DHT22;26216;53.724;9.898;2023-05-07T06:21:24;12.40;97.20
40516;DHT22;26216;53.724;9.898;2023-05-07T06:23:50;12.40;97.10
40516;DHT22;26216;53.724;9.898;2023-05-07T06:26:17;12.50;97.10
40516;DHT22;26216;53.724;9.898;2023-05-07T06:28:43;12.50;97.10
40516;DHT22;26216;53.724;9.898;2023-05-07T06:31:19;12.60;97.10
40516;DHT22;26216;53.724;9.898;2023-05-07T06:33:48;12.60;96.90
40516;DHT22;26216;53.724;9.898;2023-05-07T06:36:15;12.60;96.90
40516;DHT22;26216;53.724;9.898;2023-05-07T06:38:41;12.60;96.70
40516;DHT22;26216;53.724;9.898;2023-05-07T06:41:07;12.70;96.80
40516;DHT22;26216;53.724;9.898;2023-05-07T06:43:33;12.70;96.80
40516;DHT22;26216;53.724;9.898;2023-05-07T06:45:59;12.70;96.50
40516;DHT22;26216;53.724;9.898;2023-05-07T06:48:25;12.70;96.60
40516;DHT22;26216;53.724;9.898;2023-05-07T06:50:51;12.70;96.50
40516;DHT22;26216;53.724;9.898;2023-05-07T06:53:17;12.70;96.60
40516;DHT22;26216;53.724;9.898;2023-05-07T06:55:43;12.80;96.60
40516;DHT22;26216;53.724;9.898;2023-05-07T06:58:08;12.80;96.70
40516;DHT22;26216;53.724;9.898;2023-05-07T07:00:34;12.90;96.60
40516;DHT22;26216;53.724;9.898;2023-05-07T07:03:00;12.90;96.50
40516;DHT22;26216;53.724;9.898;2023-05-07T07:05:26;12.90;96.50
40516;DHT22;26216;53.724;9.898;2023-05-07T07:07:52;12.90;96.40
40516;DHT22;26216;53.724;9.898;2023-05-07T07:10:24;13.00;96.30
40516;DHT22;26216;53.724;9.898;2023-05-07T07:12:50;13.00;96.30
40516;DHT22;26216;53.724;9.898;2023-05-07T07:15:16;13.10;96.20
40516;DHT22;26216;53.724;9.898;2023-05-07T07:17:42;13.10;96.10
40516;DHT22;26216;53.724;9.898;2023-05-07T07:20:08;13.10;96.00
40516;DHT22;26216;53.724;9.898;2023-05-07T07:22:34;13.20;96.20
40516;DHT22;26216;53.724;9.898;2023-05-07T07:25:00;13.20;96.40
40516;DHT22;26216;53.724;9.898;2023-05-07T07:27:26;13.30;96.30
40516;DHT22;26216;53.724;9.898;2023-05-07T07:29:52;13.30;96.10
40516;DHT22;26216;53.724;9.898;2023-05-07T07:32:19;13.40;96.10
40516;DHT22;26216;53.724;9.898;2023-05-07T07:34:44;13.40;96.10
40516;DHT22;26216;53.724;9.898;2023-05-07T07:37:10;13.40;95.90
40516;DHT22;26216;53.724;9.898;2023-05-07T07:39:36;13.50;95.90
40516;DHT22;26216;53.724;9.898;2023-05-07T07:42:03;13.50;95.80
40516;DHT22;26216;53.724;9.898;2023-05-07T07:44:29;13.60;95.80
40516;DHT22;26216;53.724;9.898;2023-05-07T07:46:55;13.70;95.60
40516;DHT22;26216;53.724;9.898;2023-05-07T07:49:21;13.70;95.30
40516;DHT22;26216;53.724;9.898;2023-05-07T07:51:47;13.70;95.40
40516;DHT22;26216;53.724;9.898;2023-05-07T07:54:13;13.80;95.40
40516;DHT22;26216;53.724;9.898;2023-05-07T07:56:39;13.90;95.50
40516;DHT22;26216;53.724;9.898;2023-05-07T07:59:05;13.90;95.50
40516;DHT22;26216;53.724;9.898;2023-05-07T08:01:31;14.00;95.50
40516;DHT22;26216;53.724;9.898;2023-05-07T08:03:57;14.00;95.10
40516;DHT22;26216;53.724;9.898;2023-05-07T08:06:28;14.10;95.00
40516;DHT22;26216;53.724;9.898;2023-05-07T08:08:55;14.20;94.90
40516;DHT22;26216;53.724;9.898;2023-05-07T08:11:21;14.20;94.90
40516;DHT22;26216;53.724;9.898;2023-05-07T08:13:47;14.20;95.20
40516;DHT22;26216;53.724;9.898;2023-05-07T08:16:14;14.30;95.00
40516;DHT22;26216;53.724;9.898;2023-05-07T08:18:40;14.40;94.90
40516;DHT22;26216;53.724;9.898;2023-05-07T08:21:06;14.40;94.70
40516;DHT22;26216;53.724;9.898;2023-05-07T08:23:32;14.50;94.80
40516;DHT22;26216;53.724;9.898;2023-05-07T08:26:00;14.50;94.60
40516;DHT22;26216;53.724;9.898;2023-05-07T08:28:26;14.60;94.90
40516;DHT22;26216;53.724;9.898;2023-05-07T08:30:52;14.60;94.40
40516;DHT22;26216;53.724;9.898;2023-05-07T08:33:18;14.70;94.50
40516;DHT22;26216;53.724;9.898;2023-05-07T08:35:44;14.70;94.40
40516;DHT22;26216;53.724;9.898;2023-05-07T08:38:11;14.80;94.30
40516;DHT22;26216;53.724;9.898;2023-05-07T08:40:38;14.90;94.00
40516;DHT22;26216;53.724;9.898;2023-05-07T08:43:08;14.90;94.00
40516;DHT22;26216;53.724;9.898;2023-05-07T08:45:34;15.00;94.30
40516;DHT22;26216;53.724;9.898;2023-05-07T08:48:09;15.10;94.10
40516;DHT22;26216;53.724;9.898;2023-05-07T08:50:36;15.10;93.70
40516;DHT22;26216;53.724;9.898;2023-05-07T08:53:05;15.20;93.40
40516;DHT22;26216;53.724;9.898;2023-05-07T08:55:31;15.20;93.30
40516;DHT22;26216;53.724;9.898;2023-05-07T08:57:59;15.20;93.40
40516;DHT22;26216;53.724;9.898;2023-05-07T09:00:25;15.30;93.60
40516;DHT22;26216;53.724;9.898;2023-05-07T09:02:53;15.30;93.70
40516;DHT22;26216;53.724;9.898;2023-05-07T09:05:19;15.30;93.10
40516;DHT22;26216;53.724;9.898;2023-05-07T09:07:46;15.30;93.10
40516;DHT22;26216;53.724;9.898;2023-05-07T09:10:12;15.40;92.90
40516;DHT22;26216;53.724;9.898;2023-05-07T09:12:39;15.40;92.80
40516;DHT22;26216;53.724;9.898;2023-05-07T09:15:06;15.40;93.40
40516;DHT22;26216;53.724;9.898;2023-05-07T09:17:35;15.40;93.50
40516;DHT22;26216;53.724;9.898;2023-05-07T09:20:05;15.50;93.40
40516;DHT22;26216;53.724;9.898;2023-05-07T09:22:32;15.50;93.20
40516;DHT22;26216;53.724;9.898;2023-05-07T09:24:58;15.50;93.10
40516;DHT22;26216;53.724;9.898;2023-05-07T09:27:25;15.50;93.00
40516;DHT22;26216;53.724;9.898;2023-05-07T09:29:51;15.50;93.00
40516;DHT22;26216;53.724;9.898;2023-05-07T09:32:17;15.60;92.90
40516;DHT22;26216;53.724;9.898;2023-05-07T09:34:44;15.60;93.10
40516;DHT22;26216;53.724;9.898;2023-05-07T09:37:12;15.70;93.10
40516;DHT22;26216;53.724;9.898;2023-05-07T09:39:47;15.80;93.20
40516;DHT22;26216;53.724;9.898;2023-05-07T09:42:14;15.90;93.30
40516;DHT22;26216;53.724;9.898;2023-05-07T09:44:45;15.90;93.10
40516;DHT22;26216;53.724;9.898;2023-05-07T09:47:18;16.00;93.00
40516;DHT22;26216;53.724;9.898;2023-05-07T09:49:47;16.10;92.70
40516;DHT22;26216;53.724;9.898;2023-05-07T09:52:14;16.20;93.00
40516;DHT22;26216;53.724;9.898;2023-05-07T09:54:41;16.30;92.50
40516;DHT22;26216;53.724;9.898;2023-05-07T09:57:11;16.40;92.40
40516;DHT22;26216;53.724;9.898;2023-05-07T09:59:40;16.50;92.70
40516;DHT22;26216;53.724;9.898;2023-05-07T10:02:09;16.50;92.00
40516;DHT22;26216;53.724;9.898;2023-05-07T10:04:36;16.60;92.20
40516;DHT22;26216;53.724;9.898;2023-05-07T10:07:03;16.70;92.40
40516;DHT22;26216;53.724;9.898;2023-05-07T10:09:31;16.80;92.30
40516;DHT22;26216;53.724;9.898;2023-05-07T10:11:58;16.90;92.00
40516;DHT22;26216;53.724;9.898;2023-05-07T10:14:27;17.00;92.00
40516;DHT22;26216;53.724;9.898;2023-05-07T10:16:56;17.10;92.30
40516;DHT22;26216;53.724;9.898;2023-05-07T10:19:23;17.10;92.20
40516;DHT22;26216;53.724;9.898;2023-05-07T10:21:59;17.20;92.00
40516;DHT22;26216;53.724;9.898;2023-05-07T10:24:32;17.30;91.40
40516;DHT22;26216;53.724;9.898;2023-05-07T10:27:01;17.30;91.00
40516;DHT22;26216;53.724;9.898;2023-05-07T10:29:41;17.40;91.20
40516;DHT22;26216;53.724;9.898;2023-05-07T10:32:47;17.40;91.10
40516;DHT22;26216;53.724;9.898;2023-05-07T10:35:21;17.50;91.40
40516;DHT22;26216;53.724;9.898;2023-05-07T10:37:49;17.50;91.30
40516;DHT22;26216;53.724;9.898;2023-05-07T10:40:15;17.50;91.30
40516;DHT22;26216;53.724;9.898;2023-05-07T10:43:00;17.60;90.50
40516;DHT22;26216;53.724;9.898;2023-05-07T10:45:27;17.60;90.10
40516;DHT22;26216;53.724;9.898;2023-05-07T10:50:38;17.70;90.10
40516;DHT22;26216;53.724;9.898;2023-05-07T10:55:51;17.80;90.20
40516;DHT22;26216;53.724;9.898;2023-05-07T11:00:48;17.90;89.50
40516;DHT22;26216;53.724;9.898;2023-05-07T11:03:14;17.90;89.80
40516;DHT22;26216;53.724;9.898;2023-05-07T11:05:41;17.90;88.90
40516;DHT22;26216;53.724;9.898;2023-05-07T11:08:09;17.90;88.90
40516;DHT22;26216;53.724;9.898;2023-05-07T11:10:55;17.90;88.30
40516;DHT22;26216;53.724;9.898;2023-05-07T11:13:41;17.90;87.00
40516;DHT22;26216;53.724;9.898;2023-05-07T11:16:21;17.90;87.80
40516;DHT22;26216;53.724;9.898;2023-05-07T11:18:50;17.90;88.20
40516;DHT22;26216;53.724;9.898;2023-05-07T11:21:39;17.90;88.30
40516;DHT22;26216;53.724;9.898;2023-05-07T11:24:07;17.80;87.70
40516;DHT22;26216;53.724;9.898;2023-05-07T11:26:48;17.80;87.00
40516;DHT22;26216;53.724;9.898;2023-05-07T11:29:17;17.80;88.10
40516;DHT22;26216;53.724;9.898;2023-05-07T11:31:47;17.80;88.00
40516;DHT22;26216;53.724;9.898;2023-05-07T11:34:14;17.80;88.70
40516;DHT22;26216;53.724;9.898;2023-05-07T11:36:43;17.90;88.10
40516;DHT22;26216;53.724;9.898;2023-05-07T11:41:53;17.90;88.50
40516;DHT22;26216;53.724;9.898;2023-05-07T11:44:19;17.90;88.90
40516;DHT22;26216;53.724;9.898;2023-05-07T11:46:45;18.00;89.10
40516;DHT22;26216;53.724;9.898;2023-05-07T11:49:11;18.00;88.60
40516;DHT22;26216;53.724;9.898;2023-05-07T11:51:39;18.00;88.50
40516;DHT22;26216;53.724;9.898;2023-05-07T11:54:06;18.00;88.80
40516;DHT22;26216;53.724;9.898;2023-05-07T11:56:37;18.10;88.50
40516;DHT22;26216;53.724;9.898;2023-05-07T11:59:04;18.10;89.00
40516;DHT22;26216;53.724;9.898;2023-05-07T12:01:31;18.10;89.00
40516;DHT22;26216;53.724;9.898;2023-05-07T12:03:58;18.10;88.90
40516;DHT22;26216;53.724;9.898;2023-05-07T12:06:28;18.20;88.90
40516;DHT22;26216;53.724;9.898;2023-05-07T12:08:54;18.20;89.00
40516;DHT22;26216;53.724;9.898;2023-05-07T12:11:24;18.30;88.60
40516;DHT22;26216;53.724;9.898;2023-05-07T12:13:51;18.30;88.80
40516;DHT22;26216;53.724;9.898;2023-05-07T12:16:19;18.40;89.00
40516;DHT22;26216;53.724;9.898;2023-05-07T12:18:45;18.40;87.20
40516;DHT22;26216;53.724;9.898;2023-05-07T12:21:12;18.40;88.30
40516;DHT22;26216;53.724;9.898;2023-05-07T12:23:38;18.50;87.90
40516;DHT22;26216;53.724;9.898;2023-05-07T12:26:05;18.50;87.90
40516;DHT22;26216;53.724;9.898;2023-05-07T12:28:36;18.50;87.40
40516;DHT22;26216;53.724;9.898;2023-05-07T12:31:04;18.50;86.80
40516;DHT22;26216;53.724;9.898;2023-05-07T12:33:31;18.60;87.40
40516;DHT22;26216;53.724;9.898;2023-05-07T12:35:58;18.60;87.30
40516;DHT22;26216;53.724;9.898;2023-05-07T12:38:39;18.70;87.70
40516;DHT22;26216;53.724;9.898;2023-05-07T12:41:08;18.70;87.80
40516;DHT22;26216;53.724;9.898;2023-05-07T12:43:35;18.70;87.90
40516;DHT22;26216;53.724;9.898;2023-05-07T12:46:06;18.80;87.20
40516;DHT22;26216;53.724;9.898;2023-05-07T12:48:33;18.80;86.40
40516;DHT22;26216;53.724;9.898;2023-05-07T12:51:00;18.90;86.10
40516;DHT22;26216;53.724;9.898;2023-05-07T12:53:29;18.90;86.80
40516;DHT22;26216;53.724;9.898;2023-05-07T12:55:58;18.90;86.90
40516;DHT22;26216;53.724;9.898;2023-05-07T12:58:33;19.00;87.80
40516;DHT22;26216;53.724;9.898;2023-05-07T13:01:01;19.00;87.50
40516;DHT22;26216;53.724;9.898;2023-05-07T13:03:34;19.10;86.90
40516;DHT22;26216;53.724;9.898;2023-05-07T13:06:08;19.20;87.00
40516;DHT22;26216;53.724;9.898;2023-05-07T13:08:40;19.20;86.60
40516;DHT22;26216;53.724;9.898;2023-05-07T13:11:09;19.30;86.40
40516;DHT22;26216;53.724;9.898;2023-05-07T13:13:37;19.30;85.90
40516;DHT22;26216;53.724;9.898;2023-05-07T13:16:05;19.40;86.50
40516;DHT22;26216;53.724;9.898;2023-05-07T13:18:32;19.40;86.70
40516;DHT22;26216;53.724;9.898;2023-05-07T13:21:01;19.50;87.00
40516;DHT22;26216;53.724;9.898;2023-05-07T13:23:28;19.50;86.20
40516;DHT22;26216;53.724;9.898;2023-05-07T13:25:57;19.70;86.50
40516;DHT22;26216;53.724;9.898;2023-05-07T13:28:25;19.80;85.30
40516;DHT22;26216;53.724;9.898;2023-05-07T13:30:53;19.90;84.80
40516;DHT22;26216;53.724;9.898;2023-05-07T13:33:27;19.90;85.70
40516;DHT22;26216;53.724;9.898;2023-05-07T13:35:54;20.00;84.70
40516;DHT22;26216;53.724;9.898;2023-05-07T13:38:23;20.00;84.60
40516;DHT22;26216;53.724;9.898;2023-05-07T13:40:50;20.10;84.10
40516;DHT22;26216;53.724;9.898;2023-05-07T13:43:17;20.10;84.10
40516;DHT22;26216;53.724;9.898;2023-05-07T13:45:44;20.10;82.80
40516;DHT22;26216;53.724;9.898;2023-05-07T13:48:14;20.10;83.80
40516;DHT22;26216;53.724;9.898;2023-05-07T13:50:41;20.10;83.70
40516;DHT22;26216;53.724;9.898;2023-05-07T13:53:10;20.20;84.00
40516;DHT22;26216;53.724;9.898;2023-05-07T13:55:37;20.20;83.60
40516;DHT22;26216;53.724;9.898;2023-05-07T13:58:03;20.20;83.00
40516;DHT22;26216;53.724;9.898;2023-05-07T14:00:38;20.30;83.80
40516;DHT22;26216;53.724;9.898;2023-05-07T14:03:05;20.30;82.20
40516;DHT22;26216;53.724;9.898;2023-05-07T14:05:32;20.40;81.70
40516;DHT22;26216;53.724;9.898;2023-05-07T14:07:59;20.40;82.30
40516;DHT22;26216;53.724;9.898;2023-05-07T14:10:26;20.50;81.00
40516;DHT22;26216;53.724;9.898;2023-05-07T14:12:53;20.50;81.30
40516;DHT22;26216;53.724;9.898;2023-05-07T14:15:20;20.50;82.10
40516;DHT22;26216;53.724;9.898;2023-05-07T14:17:47;20.60;82.00
40516;DHT22;26216;53.724;9.898;2023-05-07T14:20:16;20.70;81.10
40516;DHT22;26216;53.724;9.898;2023-05-07T14:22:45;20.80;81.60
40516;DHT22;26216;53.724;9.898;2023-05-07T14:25:13;20.80;80.90
40516;DHT22;26216;53.724;9.898;2023-05-07T14:27:45;20.90;81.70
40516;DHT22;26216;53.724;9.898;2023-05-07T14:30:13;21.00;80.60
40516;DHT22;26216;53.724;9.898;2023-05-07T14:32:43;21.10;80.70
40516;DHT22;26216;53.724;9.898;2023-05-07T14:35:10;21.20;80.90
40516;DHT22;26216;53.724;9.898;2023-05-07T14:37:37;21.30;79.50
40516;DHT22;26216;53.724;9.898;2023-05-07T14:40:04;21.40;80.00
40516;DHT22;26216;53.724;9.898;2023-05-07T14:42:32;21.50;79.80
40516;DHT22;26216;53.724;9.898;2023-05-07T14:44:59;21.60;79.00
40516;DHT22;26216;53.724;9.898;2023-05-07T14:47:25;21.70;78.30
40516;DHT22;26216;53.724;9.898;2023-05-07T14:49:51;21.70;75.40
40516;DHT22;26216;53.724;9.898;2023-05-07T14:52:18;21.80;76.90
40516;DHT22;26216;53.724;9.898;2023-05-07T14:54:44;21.90;76.60
40516;DHT22;26216;53.724;9.898;2023-05-07T14:57:11;22.00;77.50
40516;DHT22;26216;53.724;9.898;2023-05-07T14:59:42;22.10;76.40
40516;DHT22;26216;53.724;9.898;2023-05-07T15:02:09;22.10;75.30
40516;DHT22;26216;53.724;9.898;2023-05-07T15:04:36;22.20;74.70
40516;DHT22;26216;53.724;9.898;2023-05-07T15:07:04;22.20;74.70
40516;DHT22;26216;53.724;9.898;2023-05-07T15:09:30;22.20;74.50
40516;DHT22;26216;53.724;9.898;2023-05-07T15:11:57;22.30;75.00
40516;DHT22;26216;53.724;9.898;2023-05-07T15:14:23;22.30;74.00
40516;DHT22;26216;53.724;9.898;2023-05-07T15:16:49;22.30;73.50
40516;DHT22;26216;53.724;9.898;2023-05-07T15:19:15;22.30;73.80
40516;DHT22;26216;53.724;9.898;2023-05-07T15:21:42;22.20;72.90
40516;DHT22;26216;53.724;9.898;2023-05-07T15:24:08;22.20;73.10
40516;DHT22;26216;53.724;9.898;2023-05-07T15:26:35;22.10;73.70
40516;DHT22;26216;53.724;9.898;2023-05-07T15:29:01;22.10;73.70
40516;DHT22;26216;53.724;9.898;2023-05-07T15:31:28;22.10;73.70
40516;DHT22;26216;53.724;9.898;2023-05-07T15:33:55;22.10;73.50
40516;DHT22;26216;53.724;9.898;2023-05-07T15:36:22;22.00;72.30
40516;DHT22;26216;53.724;9.898;2023-05-07T15:38:48;21.90;72.20
40516;DHT22;26216;53.724;9.898;2023-05-07T15:41:14;21.90;72.80